createdAt,value
2024-04-12T00:02:44.518Z,8.70
2024-04-12T00:05:32.009Z,8.70
2024-04-12T00:08:21.168Z,8.70
2024-04-12T00:11:11.456Z,8.80
2024-04-12T00:14:00.907Z,9.10
2024-04-12T00:16:54.412Z,9.30
2024-04-12T00:19:42.343Z,9.40
2024-04-12T00:22:31.252Z,9.40
2024-04-12T00:25:19.448Z,9.50
2024-04-12T00:28:11.177Z,9.50
2024-04-12T00:31:01.124Z,9.40
2024-04-12T00:33:50.488Z,9.40
2024-04-12T00:36:38.234Z,9.30
2024-04-12T00:39:37.047Z,9.20
2024-04-12T00:42:33.824Z,9.20
2024-04-12T00:45:41.377Z,9.20
2024-04-12T00:48:30.804Z,9.10
2024-04-12T00:51:18.725Z,9.10
2024-04-12T00:54:08.016Z,9.00
2024-04-12T00:56:58.071Z,9.10
2024-04-12T00:59:45.854Z,9.10
2024-04-12T01:02:41.463Z,9.10
2024-04-12T01:05:29.770Z,9.20
2024-04-12T01:08:17.963Z,9.10
2024-04-12T01:11:09.445Z,9.00
2024-04-12T01:13:58.258Z,9.00
2024-04-12T01:16:45.781Z,9.00
2024-04-12T01:19:36.069Z,8.90
2024-04-12T01:22:26.914Z,8.80
2024-04-12T01:25:17.271Z,8.80
2024-04-12T01:28:05.037Z,8.60
2024-04-12T01:31:01.310Z,8.50
2024-04-12T01:33:50.263Z,8.40
2024-04-12T01:36:39.301Z,8.40
2024-04-12T01:39:29.991Z,8.40
2024-04-12T01:42:26.734Z,8.30
2024-04-12T01:45:16.813Z,8.10
2024-04-12T01:48:05.416Z,8.00
2024-04-12T01:50:52.894Z,7.90
2024-04-12T01:53:41.929Z,7.80
2024-04-12T01:56:31.700Z,7.60
2024-04-12T01:59:23.570Z,7.50
2024-04-12T02:02:12.072Z,7.20
2024-04-12T02:05:00.380Z,7.20
2024-04-12T02:07:47.684Z,7.40
2024-04-12T02:10:35.803Z,7.30
2024-04-12T02:13:24.870Z,7.30
2024-04-12T02:16:15.114Z,7.40
2024-04-12T02:19:03.026Z,7.60
2024-04-12T02:21:52.046Z,7.80
2024-04-12T02:24:42.364Z,7.80
2024-04-12T02:27:31.144Z,7.90
2024-04-12T02:30:20.513Z,8.00
2024-04-12T02:33:11.196Z,8.20
2024-04-12T02:36:03.466Z,8.20
2024-04-12T02:38:51.485Z,8.20
2024-04-12T02:41:39.613Z,8.20
2024-04-12T02:44:27.022Z,8.30
2024-04-12T02:47:15.992Z,8.30
2024-04-12T02:50:10.949Z,8.30
2024-04-12T02:52:59.626Z,8.10
2024-04-12T02:55:48.736Z,8.00
2024-04-12T02:58:41.067Z,8.00
2024-04-12T03:01:28.880Z,8.10
2024-04-12T03:04:17.833Z,8.00
2024-04-12T03:07:13.633Z,8.10
2024-04-12T03:10:01.664Z,8.10
2024-04-12T03:12:52.616Z,8.00
2024-04-12T03:15:41.665Z,7.80
2024-04-12T03:18:29.593Z,7.80
2024-04-12T03:21:18.175Z,7.90
2024-04-12T03:24:10.926Z,7.90
2024-04-12T03:27:00.109Z,7.80
2024-04-12T03:29:50.679Z,7.90
2024-04-12T03:32:40.773Z,7.90
2024-04-12T03:35:28.342Z,7.80
2024-04-12T03:38:42.088Z,7.90
2024-04-12T03:41:33.947Z,8.00
2024-04-12T03:44:22.214Z,8.00
2024-04-12T03:47:12.298Z,7.90
2024-04-12T03:50:01.046Z,7.80
2024-04-12T03:52:49.657Z,7.70
2024-04-12T03:55:37.310Z,7.60
2024-04-12T03:58:31.399Z,7.50
2024-04-12T04:01:19.040Z,7.50
2024-04-12T04:04:11.492Z,7.50
2024-04-12T04:06:59.608Z,7.50
2024-04-12T04:09:47.772Z,7.50
2024-04-12T04:12:35.672Z,7.50
2024-04-12T04:15:27.105Z,7.50
2024-04-12T04:18:19.196Z,7.40
2024-04-12T04:21:08.580Z,7.30
2024-04-12T04:24:00.086Z,7.40
2024-04-12T04:26:52.134Z,7.30
2024-04-12T04:29:44.910Z,7.30
2024-04-12T04:32:35.182Z,7.30
2024-04-12T04:35:28.737Z,7.30
2024-04-12T04:38:17.905Z,7.40
2024-04-12T04:41:08.090Z,7.40
2024-04-12T04:43:55.727Z,7.40
2024-04-12T04:46:45.937Z,7.30
2024-04-12T04:49:35.847Z,7.40
2024-04-12T04:52:23.682Z,7.40
2024-04-12T04:55:14.190Z,7.40
2024-04-12T04:58:02.102Z,7.50
2024-04-12T05:00:51.105Z,7.50
2024-04-12T05:03:39.102Z,7.60
2024-04-12T05:06:31.518Z,7.60
2024-04-12T05:09:19.993Z,7.70
2024-04-12T05:12:08.197Z,7.80
2024-04-12T05:14:57.045Z,8.00
2024-04-12T05:17:44.880Z,8.10
2024-04-12T05:20:42.407Z,8.20
2024-04-12T05:23:33.213Z,8.30
2024-04-12T05:26:22.595Z,8.50
2024-04-12T05:29:11.087Z,8.50
2024-04-12T05:31:59.142Z,8.60
2024-04-12T05:34:46.854Z,8.60
2024-04-12T05:37:37.436Z,8.60
2024-04-12T05:40:27.345Z,8.70
2024-04-12T05:43:15.693Z,8.90
2024-04-12T05:46:07.320Z,9.30
2024-04-12T05:48:55.046Z,9.50
2024-04-12T05:51:43.004Z,9.90
2024-04-12T05:54:40.939Z,10.60
2024-04-12T05:57:34.321Z,11.20
2024-04-12T06:00:25.347Z,11.80
2024-04-12T06:03:16.875Z,12.30
2024-04-12T06:06:07.916Z,12.80
2024-04-12T06:08:55.863Z,13.30
2024-04-12T06:11:43.819Z,13.60
2024-04-12T06:14:40.152Z,13.90
2024-04-12T06:17:29.852Z,14.10
2024-04-12T06:20:31.988Z,14.30
2024-04-12T06:23:20.940Z,14.30
2024-04-12T06:26:11.399Z,14.50
2024-04-12T06:29:08.431Z,14.70
2024-04-12T06:31:59.863Z,14.90
2024-04-12T06:34:47.265Z,15.20
2024-04-12T06:37:34.567Z,15.60
2024-04-12T06:40:29.841Z,15.70
2024-04-12T06:43:17.421Z,15.80
2024-04-12T06:46:15.832Z,16.00
2024-04-12T06:49:15.639Z,16.20
2024-04-12T06:52:23.768Z,16.30
2024-04-12T06:55:16.042Z,16.50
2024-04-12T06:58:05.304Z,16.50
2024-04-12T07:00:55.426Z,16.60
2024-04-12T07:03:48.287Z,16.60
2024-04-12T07:06:38.695Z,16.50
2024-04-12T07:09:26.360Z,16.20
2024-04-12T07:12:14.684Z,15.80
2024-04-12T07:15:02.510Z,15.80
2024-04-12T07:17:50.530Z,16.10
2024-04-12T07:20:41.859Z,16.40
2024-04-12T07:23:32.799Z,16.80
2024-04-12T07:26:28.211Z,17.10
2024-04-12T07:29:16.648Z,17.70
2024-04-12T07:32:11.353Z,17.70
2024-04-12T07:35:01.194Z,18.10
2024-04-12T07:37:49.123Z,18.70
2024-04-12T07:40:41.375Z,19.20
2024-04-12T07:43:43.376Z,19.70
2024-04-12T07:46:35.276Z,19.80
2024-04-12T07:49:22.900Z,19.70
2024-04-12T07:52:11.592Z,19.10
2024-04-12T07:55:02.809Z,19.10
2024-04-12T07:57:56.006Z,19.40
2024-04-12T08:00:49.127Z,19.20
2024-04-12T08:03:38.626Z,19.50
2024-04-12T08:06:56.682Z,19.30
2024-04-12T08:09:46.786Z,18.90
2024-04-12T08:12:35.350Z,19.00
2024-04-12T08:15:25.515Z,19.10
2024-04-12T08:18:22.104Z,19.40
2024-04-12T08:21:13.534Z,19.50
2024-04-12T08:24:11.890Z,19.60
2024-04-12T08:27:00.811Z,19.60
2024-04-12T08:29:50.020Z,20.00
2024-04-12T08:32:41.208Z,19.20
2024-04-12T08:35:28.591Z,19.70
2024-04-12T08:38:16.178Z,19.60
2024-04-12T08:41:10.348Z,19.90
2024-04-12T08:44:00.263Z,20.00
2024-04-12T08:46:51.514Z,20.20
2024-04-12T08:49:47.341Z,20.50
2024-04-12T08:52:44.255Z,21.20
2024-04-12T08:55:32.435Z,21.90
2024-04-12T08:58:25.387Z,22.20
2024-04-12T09:01:13.050Z,22.20
2024-04-12T09:04:07.897Z,22.30
2024-04-12T09:06:59.783Z,22.40
2024-04-12T09:09:54.140Z,22.80
2024-04-12T09:12:45.647Z,23.00
2024-04-12T09:15:35.953Z,23.30
2024-04-12T09:18:28.817Z,23.50
2024-04-12T09:21:26.660Z,23.50
2024-04-12T09:24:24.398Z,23.80
2024-04-12T09:27:14.159Z,23.50
2024-04-12T09:30:22.058Z,23.10
2024-04-12T09:33:22.048Z,23.30
2024-04-12T09:36:16.658Z,23.60
2024-04-12T09:39:15.471Z,23.60
2024-04-12T09:42:09.155Z,23.30
2024-04-12T09:45:10.854Z,23.50
2024-04-12T09:48:19.528Z,23.50
2024-04-12T09:51:26.082Z,23.60
2024-04-12T09:54:32.250Z,23.60
2024-04-12T09:57:43.914Z,23.50
2024-04-12T10:00:50.211Z,24.00
2024-04-12T10:03:56.870Z,24.20
2024-04-12T10:07:06.068Z,23.90
2024-04-12T10:10:26.238Z,24.20
2024-04-12T10:13:35.773Z,24.20
2024-04-12T10:16:42.144Z,24.50
2024-04-12T10:19:48.530Z,24.60
2024-04-12T10:22:55.181Z,24.80
2024-04-12T10:26:01.029Z,24.90
2024-04-12T10:29:13.128Z,24.80
2024-04-12T10:32:19.369Z,24.90
2024-04-12T10:35:25.596Z,24.80
2024-04-12T10:38:27.179Z,24.50
2024-04-12T10:41:23.398Z,24.40
2024-04-12T10:44:14.369Z,24.70
2024-04-12T10:47:01.938Z,24.90
2024-04-12T10:49:51.163Z,24.60
2024-04-12T10:52:40.405Z,24.80
2024-04-12T10:55:30.603Z,24.90
2024-04-12T10:58:20.326Z,25.10
2024-04-12T11:01:10.634Z,25.10
2024-04-12T11:03:58.523Z,25.20
2024-04-12T11:06:47.081Z,25.50
2024-04-12T11:09:39.945Z,25.50
2024-04-12T11:12:32.164Z,25.60
2024-04-12T11:15:25.435Z,25.70
2024-04-12T11:18:35.190Z,25.90
2024-04-12T11:21:48.103Z,26.10
2024-04-12T11:24:55.364Z,26.20
2024-04-12T11:35:36.674Z,25.80
2024-04-12T11:38:24.832Z,25.90
2024-04-12T11:41:17.659Z,25.70
2024-04-12T11:44:06.322Z,25.90
2024-04-12T11:46:57.993Z,26.10
2024-04-12T11:49:50.904Z,26.20
2024-04-12T11:52:42.168Z,26.00
2024-04-12T11:55:29.806Z,26.20
2024-04-12T11:58:17.925Z,26.10
2024-04-12T12:01:05.646Z,26.20
2024-04-12T12:03:55.858Z,26.20
2024-04-12T12:06:43.348Z,25.80
2024-04-12T12:09:38.781Z,25.30
2024-04-12T12:12:28.445Z,25.90
2024-04-12T12:15:16.966Z,26.20
2024-04-12T12:18:06.143Z,26.40
2024-04-12T12:20:57.369Z,26.70
2024-04-12T12:23:45.594Z,26.90
2024-04-12T12:26:35.855Z,27.00
2024-04-12T12:29:24.497Z,27.10
2024-04-12T12:32:12.913Z,27.10
2024-04-12T12:35:00.590Z,27.20
2024-04-12T12:37:49.370Z,27.10
2024-04-12T12:40:39.525Z,27.10
2024-04-12T12:43:30.015Z,27.20
2024-04-12T12:46:18.248Z,27.40
2024-04-12T12:49:09.462Z,27.50
2024-04-12T12:51:57.858Z,27.40
2024-04-12T12:54:48.949Z,27.30
2024-04-12T12:57:41.201Z,27.40
2024-04-12T13:00:37.496Z,27.20
2024-04-12T13:03:28.632Z,27.40
2024-04-12T13:06:22.867Z,27.50
2024-04-12T13:09:10.694Z,27.40
2024-04-12T13:11:58.984Z,27.30
2024-04-12T13:14:51.268Z,27.30
2024-04-12T13:17:43.194Z,27.30
2024-04-12T13:20:37.458Z,27.00
2024-04-12T13:23:28.605Z,26.70
2024-04-12T13:26:27.341Z,26.80
2024-04-12T13:29:15.229Z,26.90
2024-04-12T13:32:03.374Z,27.00
2024-04-12T13:34:56.490Z,27.10
2024-04-12T13:37:44.561Z,27.10
2024-04-12T13:40:32.933Z,26.80
2024-04-12T13:43:21.682Z,26.50
2024-04-12T13:46:28.411Z,26.60
2024-04-12T13:49:36.307Z,26.80
2024-04-12T13:52:26.790Z,26.30
2024-04-12T13:55:16.833Z,26.20
2024-04-12T13:58:06.650Z,25.80
2024-04-12T14:00:59.229Z,25.80
2024-04-12T14:03:46.800Z,25.70
2024-04-12T14:06:36.649Z,25.90
2024-04-12T14:09:29.557Z,25.60
2024-04-12T14:12:18.323Z,25.50
2024-04-12T14:15:06.773Z,25.30
2024-04-12T14:17:55.603Z,25.40
2024-04-12T14:20:43.169Z,25.30
2024-04-12T14:23:30.797Z,25.40
2024-04-12T14:26:26.339Z,25.60
2024-04-12T14:29:15.706Z,25.70
2024-04-12T14:32:13.346Z,25.50
2024-04-12T14:35:09.961Z,25.30
2024-04-12T14:38:03.091Z,25.20
2024-04-12T14:40:53.693Z,25.40
2024-04-12T14:43:46.062Z,25.60
2024-04-12T14:46:36.127Z,25.60
2024-04-12T14:49:26.291Z,25.70
2024-04-12T14:52:13.657Z,25.50
2024-04-12T14:55:01.686Z,25.40
2024-04-12T14:57:51.521Z,25.30
2024-04-12T15:00:44.086Z,25.40
2024-04-12T15:03:50.466Z,25.40
2024-04-12T15:06:58.231Z,25.40
2024-04-12T15:10:04.823Z,25.30
2024-04-12T15:13:11.366Z,25.20
2024-04-12T15:16:20.396Z,25.30
2024-04-12T15:19:27.393Z,25.20
2024-04-12T15:22:33.612Z,24.90
2024-04-12T15:25:40.341Z,24.80
2024-04-12T15:28:47.156Z,24.80
2024-04-12T15:31:55.999Z,24.70
2024-04-12T15:35:02.646Z,24.70
2024-04-12T15:38:10.175Z,24.60
2024-04-12T15:41:18.432Z,24.40
2024-04-12T15:44:24.680Z,24.40
2024-04-12T15:47:15.009Z,24.20
2024-04-12T15:50:27.975Z,24.10
2024-04-12T15:53:19.305Z,24.00
2024-04-12T15:56:07.718Z,23.90
2024-04-12T15:59:13.833Z,24.00
2024-04-12T16:02:20.960Z,24.10
2024-04-12T16:05:30.242Z,24.00
2024-04-12T16:08:36.999Z,24.00
2024-04-12T16:11:24.723Z,23.80
2024-04-12T16:14:12.204Z,23.70
2024-04-12T16:17:00.653Z,23.60
2024-04-12T16:19:48.212Z,23.70
2024-04-12T16:22:40.821Z,23.60
2024-04-12T16:25:29.483Z,23.50
2024-04-12T16:28:18.498Z,23.50
2024-04-12T16:31:07.572Z,23.30
2024-04-12T16:33:57.503Z,23.30
2024-04-12T16:36:45.734Z,23.20
2024-04-12T16:39:37.917Z,23.10
2024-04-12T16:42:25.949Z,22.90
2024-04-12T16:45:15.558Z,22.80
2024-04-12T16:48:04.301Z,22.80
2024-04-12T16:50:51.953Z,22.70
2024-04-12T16:53:43.401Z,22.70
2024-04-12T16:56:33.589Z,22.50
2024-04-12T16:59:22.944Z,22.30
2024-04-12T17:02:10.515Z,22.20
2024-04-12T17:04:58.293Z,22.10
2024-04-12T17:07:46.940Z,22.00
2024-04-12T17:10:34.488Z,21.90
2024-04-12T17:13:24.975Z,21.80
2024-04-12T17:16:13.763Z,21.70
2024-04-12T17:19:01.889Z,21.50
2024-04-12T17:21:49.457Z,21.40
2024-04-12T17:24:38.806Z,21.30
2024-04-12T17:27:26.395Z,21.10
2024-04-12T17:30:16.659Z,21.00
2024-04-12T17:33:05.785Z,20.90
2024-04-12T17:35:53.162Z,20.80
2024-04-12T17:38:40.809Z,20.70
2024-04-12T17:41:28.840Z,20.50
2024-04-12T17:44:17.307Z,20.40
2024-04-12T17:47:07.809Z,20.30
2024-04-12T17:49:56.875Z,20.20
2024-04-12T17:52:45.299Z,20.10
2024-04-12T17:55:32.671Z,20.00
2024-04-12T17:58:20.580Z,19.90
2024-04-12T18:01:10.096Z,19.80
2024-04-12T18:04:08.420Z,19.70
2024-04-12T18:06:56.580Z,19.50
2024-04-12T18:09:46.295Z,19.40
2024-04-12T18:12:34.811Z,19.30
2024-04-12T18:15:23.637Z,19.20
2024-04-12T18:18:11.169Z,19.10
2024-04-12T18:21:07.865Z,19.00
2024-04-12T18:23:55.627Z,18.90
2024-04-12T18:26:43.203Z,18.80
2024-04-12T18:29:31.079Z,18.70
2024-04-12T18:32:20.970Z,18.60
2024-04-12T18:35:12.279Z,18.60
2024-04-12T18:38:23.681Z,18.50
2024-04-12T18:41:29.774Z,18.40
2024-04-12T18:44:36.068Z,18.20
2024-04-12T18:47:24.104Z,18.10
2024-04-12T18:50:11.716Z,18.10
2024-04-12T18:53:00.299Z,17.90
2024-04-12T18:55:54.211Z,17.80
2024-04-12T18:58:41.780Z,17.60
2024-04-12T19:01:29.175Z,17.60
2024-04-12T19:04:18.060Z,17.50
2024-04-12T19:07:06.449Z,17.50
2024-04-12T19:09:54.348Z,17.30
2024-04-12T19:12:44.994Z,17.30
2024-04-12T19:15:36.536Z,17.20
2024-04-12T19:18:23.910Z,17.10
2024-04-12T19:21:11.625Z,17.00
2024-04-12T19:23:59.191Z,16.80
2024-04-12T19:26:47.396Z,16.60
2024-04-12T19:29:38.357Z,16.50
2024-04-12T19:32:26.266Z,16.40
2024-04-12T19:35:13.873Z,16.40
2024-04-12T19:38:03.251Z,16.20
2024-04-12T19:40:56.350Z,16.20
2024-04-12T19:43:44.393Z,16.20
2024-04-12T19:46:34.771Z,16.10
2024-04-12T19:49:22.676Z,16.00
2024-04-12T19:52:10.438Z,16.00
2024-04-12T19:54:58.280Z,15.90
2024-04-12T19:57:46.126Z,15.80
2024-04-12T20:00:37.312Z,15.60
2024-04-12T20:03:28.200Z,15.60
2024-04-12T20:06:15.710Z,15.60
2024-04-12T20:09:04.028Z,15.50
2024-04-12T20:11:52.078Z,15.50
2024-04-12T20:14:39.977Z,15.50
2024-04-12T20:17:27.788Z,15.40
2024-04-12T20:20:19.465Z,15.40
2024-04-12T20:23:10.193Z,15.40
2024-04-12T20:26:02.478Z,15.30
2024-04-12T20:28:55.051Z,15.20
2024-04-12T20:31:44.273Z,15.20
2024-04-12T20:34:57.590Z,15.10
2024-04-12T20:37:48.226Z,15.00
2024-04-12T20:40:36.359Z,14.90
2024-04-12T20:43:24.966Z,14.90
2024-04-12T20:46:12.219Z,14.90
2024-04-12T20:49:01.120Z,14.80
2024-04-12T20:51:49.879Z,14.70
2024-04-12T20:54:40.505Z,14.70
2024-04-12T20:57:27.883Z,14.60
2024-04-12T21:00:17.971Z,14.30
2024-04-12T21:03:06.930Z,14.10
2024-04-12T21:05:56.531Z,14.10
2024-04-12T21:08:44.659Z,14.10
2024-04-12T21:11:35.553Z,14.20
2024-04-12T21:14:23.435Z,14.20
2024-04-12T21:17:12.934Z,14.30
2024-04-12T21:20:00.597Z,14.30
2024-04-12T21:22:48.086Z,14.20
2024-04-12T21:25:35.358Z,14.10
2024-04-12T21:28:26.608Z,14.00
2024-04-12T21:31:14.171Z,13.90
2024-04-12T21:34:02.095Z,13.70
2024-04-12T21:36:50.043Z,13.60
2024-04-12T21:39:37.386Z,13.40
2024-04-12T21:42:25.824Z,13.30
2024-04-12T21:45:15.949Z,13.20
2024-04-12T21:48:04.088Z,13.00
2024-04-12T21:50:54.526Z,12.80
2024-04-12T21:53:42.828Z,12.80
2024-04-12T21:56:30.125Z,12.70
2024-04-12T21:59:20.537Z,12.70
2024-04-12T22:02:10.626Z,12.70
2024-04-12T22:04:58.604Z,12.90
2024-04-12T22:07:45.930Z,13.00
2024-04-12T22:10:33.455Z,13.10
2024-04-12T22:13:22.034Z,13.20
2024-04-12T22:16:10.964Z,13.30
2024-04-12T22:19:01.338Z,13.30
2024-04-12T22:21:49.495Z,13.20
2024-04-12T22:24:37.076Z,13.10
2024-04-12T22:27:25.016Z,13.20
2024-04-12T22:30:13.141Z,13.10
2024-04-12T22:33:01.114Z,13.10
2024-04-12T22:35:51.171Z,13.00
2024-04-12T22:38:39.279Z,12.90
2024-04-12T22:41:26.854Z,12.90
2024-04-12T22:44:14.423Z,12.90
2024-04-12T22:47:01.827Z,12.90
2024-04-12T22:49:49.459Z,12.80
2024-04-12T22:52:39.332Z,12.80
2024-04-12T22:55:26.898Z,12.90
2024-04-12T22:58:14.247Z,12.80
2024-04-12T23:01:04.570Z,12.80
2024-04-12T23:03:51.883Z,12.70
2024-04-12T23:06:41.854Z,12.70
2024-04-12T23:09:32.303Z,12.70
2024-04-12T23:12:19.780Z,12.80
2024-04-12T23:15:08.938Z,12.80
2024-04-12T23:17:56.895Z,12.80
2024-04-12T23:20:52.933Z,12.90
2024-04-12T23:23:40.517Z,12.90
2024-04-12T23:26:32.648Z,12.90
2024-04-12T23:29:20.104Z,12.90
2024-04-12T23:32:08.383Z,12.80
2024-04-12T23:34:56.814Z,12.80
2024-04-12T23:37:44.528Z,12.80
2024-04-12T23:40:32.115Z,12.80
2024-04-12T23:43:25.123Z,12.60
2024-04-12T23:46:16.112Z,12.60
2024-04-12T23:49:06.399Z,12.50
2024-04-12T23:51:53.653Z,12.50
2024-04-12T23:54:41.582Z,12.40
2024-04-12T23:57:29.059Z,12.50
